createdAt,value
2017-09-16T00:01:13.506Z,96567.70
2017-09-16T00:03:41.097Z,96564.33
2017-09-16T00:06:08.688Z,96568.55
2017-09-16T00:08:36.265Z,96571.95
2017-09-16T00:11:04.323Z,96573.66
2017-09-16T00:13:31.880Z,96577.02
2017-09-16T00:15:59.484Z,96574.89
2017-09-16T00:18:27.064Z,96572.80
2017-09-16T00:20:54.653Z,96568.14
2017-09-16T00:23:22.260Z,96569.83
2017-09-16T00:25:49.851Z,96558.38
2017-09-16T00:28:17.443Z,96569.38
2017-09-16T00:30:45.050Z,96562.22
2017-09-16T00:33:12.947Z,96563.07
2017-09-16T00:35:40.508Z,96555.45
2017-09-16T00:38:08.097Z,96546.53
2017-09-16T00:40:35.730Z,96544.42
2017-09-16T00:43:03.330Z,96549.08
2017-09-16T00:45:31.101Z,96552.47
2017-09-16T00:47:58.737Z,96561.36
2017-09-16T00:50:26.371Z,96562.21
2017-09-16T00:52:55.455Z,96564.73
2017-09-16T00:55:23.050Z,96571.09
2017-09-16T00:57:50.617Z,96562.64
2017-09-16T01:00:18.578Z,96552.48
2017-09-16T01:02:46.179Z,96553.34
2017-09-16T01:05:16.317Z,96545.28
2017-09-16T01:07:43.879Z,96555.87
2017-09-16T01:10:11.453Z,96553.32
2017-09-16T01:12:39.053Z,96559.66
2017-09-16T01:15:06.642Z,96552.47
2017-09-16T01:17:34.647Z,96550.36
2017-09-16T01:20:02.204Z,96539.36
2017-09-16T01:22:30.214Z,96538.95
2017-09-16T01:24:57.831Z,96536.41
2017-09-16T01:27:25.396Z,96542.30
2017-09-16T01:29:52.980Z,96541.46
2017-09-16T01:32:20.544Z,96539.77
2017-09-16T01:34:48.546Z,96539.78
2017-09-16T01:37:16.216Z,96531.73
2017-09-16T01:39:44.201Z,96525.39
2017-09-16T01:42:11.775Z,96528.34
2017-09-16T01:44:39.360Z,96520.73
2017-09-16T01:47:06.987Z,96518.61
2017-09-16T01:49:34.689Z,96510.16
2017-09-16T01:52:02.626Z,96507.19
2017-09-16T01:54:30.208Z,96501.25
2017-09-16T01:56:57.833Z,96493.23
2017-09-16T01:59:25.432Z,96488.56
2017-09-16T02:01:53.104Z,96477.56
2017-09-16T02:04:20.694Z,96470.80
2017-09-16T02:06:48.302Z,96466.55
2017-09-16T02:09:16.163Z,96475.44
2017-09-16T02:11:43.718Z,96477.16
2017-09-16T02:14:11.290Z,96485.63
2017-09-16T02:16:38.872Z,96491.94
2017-09-16T02:19:06.447Z,96494.91
2017-09-16T02:21:34.408Z,96486.88
2017-09-16T02:24:02.013Z,96478.84
2017-09-16T02:26:29.589Z,96480.96
2017-09-16T02:28:57.182Z,96486.89
2017-09-16T02:31:24.798Z,96491.95
2017-09-16T02:33:52.426Z,96480.97
2017-09-16T02:36:20.066Z,96475.02
2017-09-16T02:38:48.016Z,96461.91
2017-09-16T02:41:15.598Z,96460.63
2017-09-16T02:43:43.178Z,96461.07
2017-09-16T02:46:11.094Z,96464.86
2017-09-16T02:48:39.500Z,96474.59
2017-09-16T02:51:07.455Z,96481.36
2017-09-16T02:53:35.055Z,96483.48
2017-09-16T02:56:02.619Z,96482.20
2017-09-16T02:58:30.592Z,96495.33
2017-09-16T03:00:59.471Z,96500.84
2017-09-16T03:03:27.501Z,96505.48
2017-09-16T03:05:55.111Z,96500.84
2017-09-16T03:08:23.069Z,96509.73
2017-09-16T03:10:50.670Z,96525.37
2017-09-16T03:13:18.261Z,96511.86
2017-09-16T03:15:45.852Z,96497.45
2017-09-16T03:18:13.411Z,96502.09
2017-09-16T03:20:41.447Z,96513.54
2017-09-16T03:23:09.388Z,96514.80
2017-09-16T03:25:36.965Z,96508.89
2017-09-16T03:28:04.586Z,96503.39
2017-09-16T03:30:32.167Z,96507.20
2017-09-16T03:32:59.762Z,96499.58
2017-09-16T03:35:27.356Z,96498.31
2017-09-16T03:37:55.259Z,96485.17
2017-09-16T03:40:22.932Z,96492.81
2017-09-16T03:42:50.506Z,96488.58
2017-09-16T03:45:18.158Z,96489.84
2017-09-16T03:47:45.724Z,96493.66
2017-09-16T03:50:13.340Z,96483.93
2017-09-16T03:52:40.932Z,96478.42
2017-09-16T03:55:08.911Z,96481.39
2017-09-16T03:57:36.513Z,96474.62
2017-09-16T04:00:04.089Z,96475.03
2017-09-16T04:02:43.563Z,96475.87
2017-09-16T04:05:11.157Z,96467.83
2017-09-16T04:07:38.766Z,96468.69
2017-09-16T04:10:06.391Z,96469.95
2017-09-16T04:12:34.377Z,96468.27
2017-09-16T04:15:01.986Z,96468.25
2017-09-16T04:17:29.595Z,96462.34
2017-09-16T04:19:57.196Z,96468.69
2017-09-16T04:22:24.773Z,96478.85
2017-09-16T04:24:52.745Z,96479.26
2017-09-16T04:27:20.352Z,96477.58
2017-09-16T04:29:47.946Z,96480.11
2017-09-16T04:32:15.578Z,96481.37
2017-09-16T04:34:43.181Z,96477.58
2017-09-16T04:37:10.805Z,96478.41
2017-09-16T04:39:38.401Z,96472.50
2017-09-16T04:42:06.281Z,96472.06
2017-09-16T04:44:33.865Z,96484.33
2017-09-16T04:47:01.458Z,96488.98
2017-09-16T04:49:29.058Z,96491.95
2017-09-16T04:51:56.660Z,96492.39
2017-09-16T04:54:24.281Z,96497.03
2017-09-16T04:56:51.884Z,96498.72
2017-09-16T04:59:19.834Z,96499.14
2017-09-16T05:01:47.410Z,96491.09
2017-09-16T05:04:15.111Z,96493.66
2017-09-16T05:06:42.703Z,96501.68
2017-09-16T05:09:10.313Z,96507.20
2017-09-16T05:11:38.709Z,96499.56
2017-09-16T05:14:06.309Z,96503.80
2017-09-16T05:16:34.304Z,96492.39
2017-09-16T05:19:01.868Z,96491.95
2017-09-16T05:21:29.432Z,96494.08
2017-09-16T05:23:57.116Z,96490.69
2017-09-16T05:26:24.873Z,96499.16
2017-09-16T05:28:52.453Z,96497.88
2017-09-16T05:31:20.021Z,96504.21
2017-09-16T05:33:47.880Z,96501.26
2017-09-16T05:36:15.403Z,96499.16
2017-09-16T05:38:42.973Z,96499.55
2017-09-16T05:41:10.560Z,96497.45
2017-09-16T05:43:38.124Z,96500.84
2017-09-16T05:46:05.718Z,96500.84
2017-09-16T05:48:35.256Z,96507.20
2017-09-16T05:51:03.155Z,96508.04
2017-09-16T05:53:30.736Z,96512.25
2017-09-16T05:55:58.311Z,96506.77
2017-09-16T05:58:25.897Z,96513.10
2017-09-16T06:00:54.114Z,96503.80
2017-09-16T06:03:21.708Z,96501.27
2017-09-16T06:05:50.199Z,96496.60
2017-09-16T06:08:18.150Z,96497.03
2017-09-16T06:10:47.322Z,96494.48
2017-09-16T06:13:14.904Z,96490.69
2017-09-16T06:15:42.482Z,96490.26
2017-09-16T06:18:10.103Z,96494.50
2017-09-16T06:20:37.680Z,96496.17
2017-09-16T06:23:05.253Z,96494.08
2017-09-16T06:25:33.933Z,96492.79
2017-09-16T06:28:05.708Z,96489.83
2017-09-16T06:30:36.979Z,96495.75
2017-09-16T06:33:06.282Z,96497.44
2017-09-16T06:35:33.850Z,96495.76
2017-09-16T06:38:02.838Z,96496.17
2017-09-16T06:40:33.025Z,96508.05
2017-09-16T06:43:02.863Z,96513.97
2017-09-16T06:45:31.100Z,96516.48
2017-09-16T06:47:58.695Z,96518.20
2017-09-16T06:50:28.567Z,96528.36
2017-09-16T06:52:56.169Z,96524.95
2017-09-16T06:55:25.216Z,96519.04
2017-09-16T06:57:56.269Z,96520.31
2017-09-16T07:00:24.957Z,96532.15
2017-09-16T07:02:54.990Z,96537.66
2017-09-16T07:05:25.715Z,96548.23
2017-09-16T07:07:56.311Z,96540.21
2017-09-16T07:10:26.681Z,96537.69
2017-09-16T07:12:56.786Z,96536.83
2017-09-16T07:15:25.095Z,96557.16
2017-09-16T07:17:52.661Z,96566.05
2017-09-16T07:20:24.430Z,96570.73
2017-09-16T07:22:52.086Z,96576.23
2017-09-16T07:25:22.268Z,96579.20
2017-09-16T07:27:51.669Z,96588.08
2017-09-16T07:30:26.940Z,96597.39
2017-09-16T07:32:55.494Z,96598.67
2017-09-16T07:35:24.623Z,96596.12
2017-09-16T07:37:57.303Z,96593.59
2017-09-16T07:40:26.467Z,96597.41
2017-09-16T07:42:54.178Z,96601.63
2017-09-16T07:45:22.008Z,96605.84
2017-09-16T07:47:49.761Z,96600.77
2017-09-16T07:50:17.357Z,96601.62
2017-09-16T07:52:46.231Z,96610.95
2017-09-16T07:55:14.778Z,96598.25
2017-09-16T07:57:42.660Z,96588.94
2017-09-16T08:00:10.279Z,96594.87
2017-09-16T08:02:37.860Z,96597.39
2017-09-16T08:05:05.571Z,96596.95
2017-09-16T08:07:34.039Z,96593.59
2017-09-16T08:10:02.554Z,96599.92
2017-09-16T08:12:30.131Z,96603.73
2017-09-16T08:14:58.041Z,96606.72
2017-09-16T08:17:25.644Z,96605.00
2017-09-16T08:19:53.239Z,96615.19
2017-09-16T08:22:20.863Z,96613.49
2017-09-16T08:24:49.123Z,96615.59
2017-09-16T08:27:16.706Z,96608.84
2017-09-16T08:29:44.301Z,96608.39
2017-09-16T08:32:12.192Z,96612.22
2017-09-16T08:34:39.783Z,96610.52
2017-09-16T08:37:07.478Z,96615.16
2017-09-16T08:39:35.070Z,96617.30
2017-09-16T08:42:02.657Z,96610.94
2017-09-16T08:44:30.248Z,96610.92
2017-09-16T08:46:59.060Z,96613.88
2017-09-16T08:49:27.064Z,96610.48
2017-09-16T08:51:54.646Z,96605.80
2017-09-16T08:54:22.191Z,96604.94
2017-09-16T08:56:49.795Z,96609.58
2017-09-16T08:59:17.817Z,96607.89
2017-09-16T09:01:45.416Z,96601.50
2017-09-16T09:04:13.008Z,96604.05
2017-09-16T09:06:41.174Z,96602.77
2017-09-16T09:09:09.157Z,96606.58
2017-09-16T09:11:37.124Z,96609.10
2017-09-16T09:14:04.725Z,96616.76
2017-09-16T09:16:32.318Z,96623.10
2017-09-16T09:19:00.330Z,96624.82
2017-09-16T09:21:28.704Z,96626.93
2017-09-16T09:23:57.914Z,96626.91
2017-09-16T09:26:25.496Z,96629.82
2017-09-16T09:28:53.058Z,96627.29
2017-09-16T09:31:20.677Z,96627.72
2017-09-16T09:33:48.288Z,96629.01
2017-09-16T09:36:15.886Z,96620.51
2017-09-16T09:38:43.469Z,96618.82
2017-09-16T09:41:11.431Z,96616.30
2017-09-16T09:43:39.009Z,96612.05
2017-09-16T09:46:06.613Z,96605.67
2017-09-16T09:48:36.937Z,96601.00
2017-09-16T09:51:04.495Z,96607.38
2017-09-16T09:53:33.008Z,96617.13
2017-09-16T09:56:00.544Z,96618.40
2017-09-16T09:58:28.486Z,96627.73
2017-09-16T10:00:56.461Z,96640.44
2017-09-16T10:03:24.191Z,96640.48
2017-09-16T10:05:51.776Z,96646.41
2017-09-16T10:08:19.342Z,96644.30
2017-09-16T10:10:46.921Z,96647.70
2017-09-16T10:13:14.531Z,96648.55
2017-09-16T10:15:42.213Z,96648.52
2017-09-16T10:18:11.037Z,96650.22
2017-09-16T10:20:38.654Z,96654.02
2017-09-16T10:23:06.231Z,96660.80
2017-09-16T10:25:35.472Z,96668.86
2017-09-16T10:28:03.072Z,96660.77
2017-09-16T10:30:31.031Z,96656.53
2017-09-16T10:32:58.977Z,96656.10
2017-09-16T10:35:26.924Z,96654.81
2017-09-16T10:37:56.335Z,96653.52
2017-09-16T10:40:23.943Z,96647.95
2017-09-16T10:42:51.558Z,96652.56
2017-09-16T10:45:19.587Z,96651.64
2017-09-16T10:47:47.460Z,96643.49
2017-09-16T10:50:15.052Z,96645.55
2017-09-16T10:52:42.662Z,96641.66
2017-09-16T10:55:10.671Z,96646.37
2017-09-16T10:57:38.285Z,96643.77
2017-09-16T11:00:07.143Z,96641.62
2017-09-16T11:02:34.710Z,96636.11
2017-09-16T11:05:02.542Z,96631.80
2017-09-16T11:07:30.123Z,96635.98
2017-09-16T11:09:57.735Z,96634.18
2017-09-16T11:12:25.358Z,96624.72
2017-09-16T11:14:53.671Z,96626.69
2017-09-16T11:17:21.310Z,96624.03
2017-09-16T11:19:48.905Z,96626.10
2017-09-16T11:22:16.988Z,96630.75
2017-09-16T11:24:44.584Z,96637.13
2017-09-16T11:27:12.573Z,96640.22
2017-09-16T11:29:40.160Z,96638.58
2017-09-16T11:32:08.171Z,96643.72
2017-09-16T11:34:36.352Z,96641.66
2017-09-16T11:37:04.034Z,96639.59
2017-09-16T11:39:33.230Z,96644.75
2017-09-16T11:42:01.165Z,96643.05
2017-09-16T11:44:29.550Z,96641.48
2017-09-16T11:46:57.173Z,96636.91
2017-09-16T11:49:24.781Z,96629.25
2017-09-16T11:51:52.405Z,96624.55
2017-09-16T11:54:19.996Z,96633.08
2017-09-16T11:56:48.444Z,96628.44
2017-09-16T11:59:16.399Z,96624.63
2017-09-16T12:01:44.005Z,96628.85
2017-09-16T12:04:11.724Z,96627.56
2017-09-16T12:06:39.291Z,96634.79
2017-09-16T12:09:06.990Z,96626.72
2017-09-16T12:11:34.566Z,96630.12
2017-09-16T12:14:03.845Z,96630.98
2017-09-16T12:16:31.754Z,96622.45
2017-09-16T12:19:01.734Z,96625.88
2017-09-16T12:21:31.209Z,96629.23
2017-09-16T12:23:59.214Z,96623.25
2017-09-16T12:26:26.807Z,96624.95
2017-09-16T12:28:54.397Z,96623.23
2017-09-16T12:31:22.345Z,96625.31
2017-09-16T12:33:49.932Z,96627.86
2017-09-16T12:36:17.512Z,96627.84
2017-09-16T12:38:45.123Z,96627.05
2017-09-16T12:41:12.673Z,96625.41
2017-09-16T12:43:40.709Z,96632.23
2017-09-16T12:46:08.292Z,96636.09
2017-09-16T12:48:36.208Z,96628.95
2017-09-16T12:51:03.919Z,96628.60
2017-09-16T12:53:31.578Z,96628.60
2017-09-16T12:55:59.343Z,96618.39
2017-09-16T12:58:26.946Z,96626.90
2017-09-16T13:00:54.847Z,96622.71
2017-09-16T13:03:22.750Z,96621.85
2017-09-16T13:05:50.342Z,96615.07
2017-09-16T13:08:17.986Z,96624.41
2017-09-16T13:10:45.985Z,96618.44
2017-09-16T13:13:13.767Z,96621.38
2017-09-16T13:15:41.350Z,96619.27
2017-09-16T13:18:09.230Z,96625.22
2017-09-16T13:20:36.819Z,96625.61
2017-09-16T13:23:04.412Z,96631.16
2017-09-16T13:25:33.451Z,96631.22
2017-09-16T13:28:01.070Z,96629.55
2017-09-16T13:30:29.029Z,96627.80
2017-09-16T13:32:56.744Z,96633.30
2017-09-16T13:35:25.681Z,96628.60
2017-09-16T13:37:53.265Z,96624.78
2017-09-16T13:40:20.842Z,96629.45
2017-09-16T13:42:48.466Z,96634.52
2017-09-16T13:45:17.357Z,96634.52
2017-09-16T13:47:45.750Z,96628.63
2017-09-16T13:50:14.503Z,96628.17
2017-09-16T13:52:42.188Z,96622.59
2017-09-16T13:55:09.788Z,96616.59
2017-09-16T13:57:40.003Z,96605.42
2017-09-16T14:00:07.627Z,96603.63
2017-09-16T14:02:35.225Z,96605.19
2017-09-16T14:05:03.257Z,96601.27
2017-09-16T14:07:30.852Z,96608.00
2017-09-16T14:09:58.453Z,96599.38
2017-09-16T14:12:26.055Z,96601.48
2017-09-16T14:14:53.649Z,96592.48
2017-09-16T14:17:21.277Z,96603.31
2017-09-16T14:19:48.872Z,96607.57
2017-09-16T14:22:16.735Z,96603.59
2017-09-16T14:24:44.313Z,96603.09
2017-09-16T14:27:11.881Z,96605.89
2017-09-16T14:29:39.450Z,96613.46
2017-09-16T14:32:07.062Z,96605.16
2017-09-16T14:34:36.169Z,96608.48
2017-09-16T14:37:08.907Z,96603.38
2017-09-16T14:39:37.098Z,96603.58
2017-09-16T14:42:04.689Z,96599.81
2017-09-16T14:44:32.290Z,96605.33
2017-09-16T14:46:59.890Z,96612.62
2017-09-16T14:49:27.470Z,96607.63
2017-09-16T14:51:55.396Z,96598.77
2017-09-16T14:54:23.011Z,96602.22
2017-09-16T14:56:50.606Z,96599.30
2017-09-16T14:59:18.289Z,96598.93
2017-09-16T15:01:46.065Z,96597.25
2017-09-16T15:04:14.292Z,96596.27
2017-09-16T15:06:41.896Z,96599.29
2017-09-16T15:09:09.836Z,96600.65
2017-09-16T15:11:37.529Z,96599.06
2017-09-16T15:14:05.162Z,96598.73
2017-09-16T15:16:32.785Z,96595.82
2017-09-16T15:19:02.364Z,96602.64
2017-09-16T15:21:30.016Z,96603.86
2017-09-16T15:23:57.593Z,96596.97
2017-09-16T15:26:27.847Z,96594.76
2017-09-16T15:28:55.678Z,96593.37
2017-09-16T15:31:23.255Z,96594.34
2017-09-16T15:33:51.488Z,96596.92
2017-09-16T15:36:21.224Z,96602.52
2017-09-16T15:38:49.224Z,96610.23
2017-09-16T15:41:16.809Z,96607.80
2017-09-16T15:43:44.865Z,96612.55
2017-09-16T15:46:12.504Z,96616.91
2017-09-16T15:48:40.084Z,96622.50
2017-09-16T15:51:07.722Z,96623.33
2017-09-16T15:53:35.337Z,96629.73
2017-09-16T15:56:03.201Z,96623.37
2017-09-16T15:58:30.797Z,96624.66
2017-09-16T16:00:58.359Z,96623.39
2017-09-16T16:03:25.988Z,96630.20
2017-09-16T16:05:53.595Z,96626.80
2017-09-16T16:08:21.195Z,96633.18
2017-09-16T16:10:49.142Z,96635.34
2017-09-16T16:13:22.988Z,96638.77
2017-09-16T16:15:51.206Z,96640.08
2017-09-16T16:18:20.194Z,96638.41
2017-09-16T16:20:47.790Z,96638.00
2017-09-16T16:23:15.382Z,96644.89
2017-09-16T16:25:43.241Z,96652.15
2017-09-16T16:28:10.838Z,96650.00
2017-09-16T16:30:40.154Z,96646.66
2017-09-16T16:33:07.755Z,96647.58
2017-09-16T16:35:38.053Z,96644.23
2017-09-16T16:38:05.667Z,96650.19
2017-09-16T16:40:33.353Z,96649.32
2017-09-16T16:43:00.974Z,96639.11
2017-09-16T16:45:29.484Z,96639.56
2017-09-16T16:48:00.861Z,96638.28
2017-09-16T16:50:28.904Z,96639.11
2017-09-16T16:53:01.517Z,96650.20
2017-09-16T16:55:30.029Z,96653.21
2017-09-16T16:57:57.781Z,96649.84
2017-09-16T17:00:27.453Z,96651.11
2017-09-16T17:02:55.034Z,96647.28
2017-09-16T17:05:23.592Z,96644.75
2017-09-16T17:07:51.220Z,96637.14
2017-09-16T17:10:19.244Z,96626.51
2017-09-16T17:12:46.865Z,96630.77
2017-09-16T17:15:14.444Z,96634.20
2017-09-16T17:17:43.375Z,96644.39
2017-09-16T17:20:11.093Z,96647.40
2017-09-16T17:22:39.064Z,96652.97
2017-09-16T17:25:06.643Z,96667.84
2017-09-16T17:27:34.233Z,96667.38
2017-09-16T17:30:01.845Z,96662.74
2017-09-16T17:32:30.655Z,96668.69
2017-09-16T17:35:00.513Z,96675.08
2017-09-16T17:37:29.002Z,96680.20
2017-09-16T17:39:57.099Z,96673.00
2017-09-16T17:42:24.716Z,96670.47
2017-09-16T17:44:52.321Z,96672.18
2017-09-16T17:47:28.445Z,96664.54
2017-09-16T17:50:04.105Z,96668.38
2017-09-16T17:52:35.906Z,96661.58
2017-09-16T17:55:24.289Z,96666.27
2017-09-16T17:57:59.801Z,96675.60
2017-09-16T18:00:27.414Z,96695.16
2017-09-16T18:02:55.011Z,96692.20
2017-09-16T18:05:22.637Z,96684.99
2017-09-16T18:07:50.703Z,96690.94
2017-09-16T18:10:18.650Z,96696.47
2017-09-16T18:12:46.808Z,96713.86
2017-09-16T18:15:14.432Z,96720.22
2017-09-16T18:17:42.014Z,96719.80
2017-09-16T18:20:10.734Z,96719.82
2017-09-16T18:22:38.714Z,96729.98
2017-09-16T18:25:06.366Z,96728.73
2017-09-16T18:27:33.957Z,96728.30
2017-09-16T18:30:01.534Z,96730.86
2017-09-16T18:32:29.865Z,96735.10
2017-09-16T18:34:57.484Z,96729.16
2017-09-16T18:37:26.749Z,96729.58
2017-09-16T18:39:55.013Z,96725.35
2017-09-16T18:42:24.589Z,96713.91
2017-09-16T18:44:54.222Z,96712.62
2017-09-16T18:47:25.551Z,96712.64
2017-09-16T18:49:54.831Z,96706.71
2017-09-16T18:52:24.878Z,96716.86
2017-09-16T18:54:55.345Z,96718.13
2017-09-16T18:57:25.208Z,96719.41
2017-09-16T18:59:55.199Z,96721.52
2017-09-16T19:02:29.767Z,96716.84
2017-09-16T19:04:59.574Z,96713.45
2017-09-16T19:07:27.160Z,96719.81
2017-09-16T19:09:55.212Z,96721.09
2017-09-16T19:12:23.516Z,96727.86
2017-09-16T19:15:01.149Z,96724.47
2017-09-16T19:17:29.367Z,96729.97
2017-09-16T19:19:57.665Z,96731.67
2017-09-16T19:22:29.262Z,96728.71
2017-09-16T19:24:56.939Z,96723.20
2017-09-16T19:27:25.326Z,96733.77
2017-09-16T19:29:54.258Z,96730.81
2017-09-16T19:32:21.960Z,96715.55
2017-09-16T19:34:52.625Z,96717.66
2017-09-16T19:37:20.692Z,96723.95
2017-09-16T19:39:48.305Z,96718.87
2017-09-16T19:42:16.301Z,96726.05
2017-09-16T19:44:44.328Z,96729.02
2017-09-16T19:47:11.944Z,96729.02
2017-09-16T19:49:40.032Z,96742.11
2017-09-16T19:52:08.037Z,96743.37
2017-09-16T19:54:35.888Z,96731.92
2017-09-16T19:57:03.633Z,96735.73
2017-09-16T19:59:31.362Z,96736.14
2017-09-16T20:01:59.658Z,96733.56
2017-09-16T20:04:27.247Z,96727.22
2017-09-16T20:06:56.865Z,96725.95
2017-09-16T20:09:24.773Z,96731.41
2017-09-16T20:11:52.389Z,96724.19
2017-09-16T20:14:19.974Z,96727.58
2017-09-16T20:16:48.348Z,96741.52
2017-09-16T20:19:15.918Z,96738.14
2017-09-16T20:21:43.560Z,96733.90
2017-09-16T20:24:11.146Z,96738.52
2017-09-16T20:26:38.861Z,96732.14
2017-09-16T20:29:11.423Z,96727.92
2017-09-16T20:31:39.012Z,96727.06
2017-09-16T20:34:06.594Z,96730.00
2017-09-16T20:36:34.170Z,96727.45
2017-09-16T20:39:01.743Z,96727.87
2017-09-16T20:41:29.367Z,96724.05
2017-09-16T20:43:56.961Z,96727.00
2017-09-16T20:46:24.953Z,96735.86
2017-09-16T20:48:52.549Z,96739.20
2017-09-16T20:51:21.534Z,96746.83
2017-09-16T20:53:49.222Z,96755.68
2017-09-16T20:56:18.110Z,96755.64
2017-09-16T20:58:45.889Z,96757.30
2017-09-16T21:01:13.632Z,96764.05
2017-09-16T21:03:41.236Z,96758.11
2017-09-16T21:06:08.865Z,96758.53
2017-09-16T21:08:36.442Z,96758.09
2017-09-16T21:11:04.414Z,96752.62
2017-09-16T21:13:31.971Z,96745.02
2017-09-16T21:15:59.962Z,96740.80
2017-09-16T21:18:27.610Z,96742.45
2017-09-16T21:20:55.174Z,96749.67
2017-09-16T21:23:22.795Z,96755.96
2017-09-16T21:25:51.768Z,96760.61
2017-09-16T21:28:19.353Z,96751.28
2017-09-16T21:30:47.789Z,96752.11
2017-09-16T21:33:16.160Z,96755.06
2017-09-16T21:35:44.190Z,96753.76
2017-09-16T21:38:11.995Z,96763.83
2017-09-16T21:40:39.584Z,96773.52
2017-09-16T21:43:07.147Z,96774.77
2017-09-16T21:45:34.740Z,96768.42
2017-09-16T21:48:02.332Z,96765.03
2017-09-16T21:50:30.598Z,96772.16
2017-09-16T21:52:58.326Z,96772.59
2017-09-16T21:55:26.181Z,96765.83
2017-09-16T21:57:54.207Z,96764.50
2017-09-16T22:00:21.805Z,96767.84
2017-09-16T22:02:49.413Z,96762.39
2017-09-16T22:05:16.987Z,96761.11
2017-09-16T22:07:44.742Z,96756.84
2017-09-16T22:10:12.331Z,96747.97
2017-09-16T22:12:40.038Z,96751.77
2017-09-16T22:15:08.389Z,96757.26
2017-09-16T22:17:36.051Z,96759.78
2017-09-16T22:20:06.369Z,96756.83
2017-09-16T22:22:34.320Z,96759.34
2017-09-16T22:25:01.902Z,96763.13
2017-09-16T22:27:29.480Z,96759.33
2017-09-16T22:29:57.308Z,96759.73
2017-09-16T22:32:24.877Z,96749.15
2017-09-16T22:34:52.497Z,96744.47
2017-09-16T22:37:21.453Z,96738.09
2017-09-16T22:39:49.873Z,96733.89
2017-09-16T22:42:17.479Z,96726.23
2017-09-16T22:44:46.478Z,96727.05
2017-09-16T22:47:14.121Z,96722.34
2017-09-16T22:49:42.009Z,96724.45
2017-09-16T22:52:09.624Z,96732.84
2017-09-16T22:54:37.788Z,96734.45
2017-09-16T22:57:05.386Z,96730.65
2017-09-16T22:59:32.997Z,96731.87
2017-09-16T23:02:00.626Z,96737.28
2017-09-16T23:04:28.331Z,96729.23
2017-09-16T23:06:56.299Z,96723.27
2017-09-16T23:09:24.113Z,96731.69
2017-09-16T23:11:52.061Z,96727.48
2017-09-16T23:14:19.620Z,96728.77
2017-09-16T23:16:47.182Z,96730.03
2017-09-16T23:19:14.793Z,96732.55
2017-09-16T23:21:42.765Z,96721.14
2017-09-16T23:24:10.381Z,96715.66
2017-09-16T23:26:37.957Z,96715.67
2017-09-16T23:29:05.599Z,96713.09
2017-09-16T23:31:33.176Z,96716.85
2017-09-16T23:34:00.783Z,96721.08
2017-09-16T23:36:28.985Z,96730.81
2017-09-16T23:38:56.971Z,96710.98
2017-09-16T23:41:24.555Z,96710.98
2017-09-16T23:43:52.133Z,96709.30
2017-09-16T23:46:19.772Z,96706.33
2017-09-16T23:48:47.480Z,96699.55
2017-09-16T23:51:15.174Z,96695.27
2017-09-16T23:53:42.752Z,96697.79
2017-09-16T23:56:10.363Z,96699.47
2017-09-16T23:58:37.975Z,96694.40
